createdAt,value
2018-09-22T00:00:39.247Z,20.20
2018-09-22T00:03:12.513Z,20.20
2018-09-22T00:05:45.864Z,20.10
2018-09-22T00:08:19.114Z,20.10
2018-09-22T00:10:52.296Z,20.10
2018-09-22T00:13:25.642Z,20.00
2018-09-22T00:15:58.703Z,20.00
2018-09-22T00:18:32.023Z,20.00
2018-09-22T00:21:05.173Z,20.00
2018-09-22T00:23:38.142Z,20.00
2018-09-22T00:26:11.302Z,20.00
2018-09-22T00:28:44.690Z,19.90
2018-09-22T00:31:18.017Z,19.80
2018-09-22T00:33:51.407Z,19.80
2018-09-22T00:36:24.519Z,19.70
2018-09-22T00:38:58.241Z,19.70
2018-09-22T00:41:34.393Z,19.60
2018-09-22T00:44:07.531Z,19.60
2018-09-22T00:46:40.570Z,19.60
2018-09-22T00:49:17.390Z,19.50
2018-09-22T00:51:50.659Z,19.50
2018-09-22T00:54:24.670Z,19.50
2018-09-22T00:56:57.657Z,19.40
2018-09-22T00:59:31.074Z,19.40
2018-09-22T01:02:06.160Z,19.40
2018-09-22T01:04:41.088Z,19.40
2018-09-22T01:07:15.324Z,19.40
2018-09-22T01:09:49.566Z,19.40
2018-09-22T01:12:23.446Z,19.40
2018-09-22T01:14:57.412Z,19.40
2018-09-22T01:17:31.498Z,19.30
2018-09-22T01:20:05.925Z,19.20
2018-09-22T01:22:39.425Z,19.10
2018-09-22T01:25:13.505Z,19.00
2018-09-22T01:27:47.975Z,19.00
2018-09-22T01:30:21.487Z,18.90
2018-09-22T01:32:54.569Z,18.80
2018-09-22T01:35:28.183Z,18.80
2018-09-22T01:38:01.932Z,18.70
2018-09-22T01:40:35.222Z,18.80
2018-09-22T01:43:11.909Z,18.80
2018-09-22T01:45:45.354Z,18.80
2018-09-22T01:48:22.439Z,18.80
2018-09-22T01:50:57.312Z,18.80
2018-09-22T01:53:31.271Z,18.80
2018-09-22T01:56:04.877Z,18.80
2018-09-22T01:58:38.511Z,18.80
2018-09-22T02:01:24.336Z,18.80
2018-09-22T02:03:58.850Z,18.70
2018-09-22T02:06:32.895Z,18.70
2018-09-22T02:09:07.929Z,18.60
2018-09-22T02:11:41.842Z,18.50
2018-09-22T02:14:16.337Z,18.40
2018-09-22T02:16:49.973Z,18.30
2018-09-22T02:19:24.996Z,18.30
2018-09-22T02:21:58.396Z,18.20
2018-09-22T02:24:33.031Z,18.10
2018-09-22T02:27:06.391Z,18.10
2018-09-22T02:29:40.852Z,18.10
2018-09-22T02:32:15.865Z,18.10
2018-09-22T02:34:50.830Z,18.10
2018-09-22T02:37:25.602Z,18.10
2018-09-22T02:40:00.968Z,18.20
2018-09-22T02:42:34.958Z,18.20
2018-09-22T02:45:08.106Z,18.20
2018-09-22T02:47:41.554Z,18.20
2018-09-22T02:50:15.273Z,18.20
2018-09-22T02:52:49.089Z,18.30
2018-09-22T02:55:22.723Z,18.30
2018-09-22T02:57:58.491Z,18.40
2018-09-22T03:00:33.572Z,18.40
2018-09-22T03:03:14.709Z,18.30
2018-09-22T03:05:50.797Z,18.30
2018-09-22T03:08:28.573Z,18.20
2018-09-22T03:11:06.048Z,18.00
2018-09-22T03:13:45.660Z,17.90
2018-09-22T03:16:20.015Z,17.80
2018-09-22T03:18:53.945Z,17.70
2018-09-22T03:21:29.158Z,17.60
2018-09-22T03:24:03.549Z,17.60
2018-09-22T03:26:38.307Z,17.40
2018-09-22T03:29:11.844Z,17.40
2018-09-22T03:31:45.749Z,17.20
2018-09-22T03:34:19.041Z,17.20
2018-09-22T03:36:52.727Z,17.20
2018-09-22T03:39:27.395Z,17.10
2018-09-22T03:42:01.088Z,17.10
2018-09-22T03:44:34.953Z,17.00
2018-09-22T03:47:08.446Z,17.00
2018-09-22T03:49:41.704Z,16.90
2018-09-22T03:52:15.191Z,16.90
2018-09-22T03:54:48.805Z,16.90
2018-09-22T03:57:22.960Z,16.90
2018-09-22T03:59:56.517Z,17.00
2018-09-22T04:02:30.066Z,17.00
2018-09-22T04:05:03.576Z,17.00
2018-09-22T04:07:36.947Z,17.00
2018-09-22T04:10:12.073Z,16.90
2018-09-22T04:12:46.287Z,16.90
2018-09-22T04:15:19.861Z,16.90
2018-09-22T04:17:56.171Z,16.90
2018-09-22T04:20:30.095Z,16.80
2018-09-22T04:23:03.361Z,16.70
2018-09-22T04:25:36.862Z,16.60
2018-09-22T04:28:10.487Z,16.60
2018-09-22T04:30:43.820Z,16.50
2018-09-22T04:33:17.008Z,16.50
2018-09-22T04:35:50.275Z,16.50
2018-09-22T04:38:24.852Z,16.40
2018-09-22T04:41:00.191Z,16.40
2018-09-22T04:43:39.458Z,16.40
2018-09-22T04:46:13.054Z,16.30
2018-09-22T04:48:46.455Z,16.20
2018-09-22T04:51:19.734Z,16.20
2018-09-22T04:53:53.017Z,16.20
2018-09-22T04:56:26.971Z,16.20
2018-09-22T04:59:00.280Z,16.30
2018-09-22T05:01:33.222Z,16.30
2018-09-22T05:04:06.446Z,16.20
2018-09-22T05:06:39.444Z,16.20
2018-09-22T05:09:14.516Z,16.20
2018-09-22T05:11:49.261Z,16.20
2018-09-22T05:14:22.771Z,16.20
2018-09-22T05:16:56.091Z,16.20
2018-09-22T05:19:29.288Z,16.20
2018-09-22T05:22:04.329Z,16.10
2018-09-22T05:24:37.616Z,16.10
2018-09-22T05:27:11.024Z,16.10
2018-09-22T05:29:44.235Z,16.10
2018-09-22T05:32:17.118Z,16.10
2018-09-22T05:34:50.418Z,16.00
2018-09-22T05:37:24.443Z,16.00
2018-09-22T05:39:57.642Z,16.00
2018-09-22T05:42:31.096Z,16.00
2018-09-22T05:45:05.017Z,16.00
2018-09-22T05:47:38.858Z,16.00
2018-09-22T05:50:16.549Z,15.90
2018-09-22T05:52:50.187Z,15.70
2018-09-22T05:55:23.522Z,15.60
2018-09-22T05:57:56.846Z,15.50
2018-09-22T06:00:30.459Z,15.40
2018-09-22T06:03:05.656Z,15.40
2018-09-22T06:05:39.422Z,15.30
2018-09-22T06:08:12.768Z,15.20
2018-09-22T06:10:46.496Z,15.20
2018-09-22T06:13:21.165Z,15.20
2018-09-22T06:15:54.494Z,15.20
2018-09-22T06:18:28.654Z,15.10
2018-09-22T06:21:02.232Z,15.10
2018-09-22T06:23:35.863Z,15.20
2018-09-22T06:26:09.986Z,15.00
2018-09-22T06:28:44.545Z,15.00
2018-09-22T06:31:19.352Z,15.00
2018-09-22T06:33:52.938Z,15.00
2018-09-22T06:36:26.288Z,15.00
2018-09-22T06:39:01.365Z,14.90
2018-09-22T06:41:35.008Z,15.00
2018-09-22T06:44:08.528Z,15.00
2018-09-22T06:46:42.024Z,15.00
2018-09-22T06:49:15.515Z,15.00
2018-09-22T06:51:48.475Z,14.90
2018-09-22T06:54:21.946Z,14.90
2018-09-22T06:56:55.368Z,15.00
2018-09-22T06:59:28.748Z,15.00
2018-09-22T07:02:02.033Z,15.00
2018-09-22T07:04:35.436Z,15.00
2018-09-22T07:07:08.609Z,14.90
2018-09-22T07:09:41.957Z,14.90
2018-09-22T07:12:15.276Z,14.90
2018-09-22T07:14:48.841Z,15.00
2018-09-22T07:17:22.128Z,15.00
2018-09-22T07:19:58.411Z,15.00
2018-09-22T07:22:35.996Z,15.00
2018-09-22T07:25:09.389Z,15.00
2018-09-22T07:27:42.596Z,15.00
2018-09-22T07:30:16.098Z,15.00
2018-09-22T07:32:49.645Z,15.10
2018-09-22T07:35:22.907Z,15.10
2018-09-22T07:37:56.516Z,15.10
2018-09-22T07:40:30.116Z,15.10
2018-09-22T07:43:04.166Z,15.20
2018-09-22T07:45:37.365Z,15.20
2018-09-22T07:48:10.682Z,15.10
2018-09-22T07:50:43.949Z,15.20
2018-09-22T07:53:17.187Z,15.20
2018-09-22T07:55:50.339Z,15.10
2018-09-22T07:58:23.628Z,15.10
2018-09-22T08:00:56.926Z,15.10
2018-09-22T08:03:30.159Z,15.10
2018-09-22T08:06:03.282Z,15.10
2018-09-22T08:08:36.633Z,15.10
2018-09-22T08:11:09.993Z,15.10
2018-09-22T08:13:43.368Z,15.00
2018-09-22T08:16:16.685Z,15.00
2018-09-22T08:18:49.936Z,15.00
2018-09-22T08:21:23.290Z,14.90
2018-09-22T08:23:56.483Z,14.90
2018-09-22T08:26:29.754Z,14.90
2018-09-22T08:29:03.051Z,14.90
2018-09-22T08:31:37.288Z,14.90
2018-09-22T08:34:10.838Z,14.90
2018-09-22T08:36:44.364Z,15.00
2018-09-22T08:39:17.584Z,15.00
2018-09-22T08:41:50.761Z,15.10
2018-09-22T08:44:24.542Z,15.00
2018-09-22T08:46:58.005Z,15.00
2018-09-22T08:49:31.492Z,15.00
2018-09-22T08:52:04.867Z,15.10
2018-09-22T08:54:38.108Z,15.10
2018-09-22T08:57:11.235Z,15.00
2018-09-22T08:59:46.078Z,15.10
2018-09-22T09:02:20.456Z,15.00
2018-09-22T09:04:53.986Z,15.10
2018-09-22T09:07:27.518Z,15.10
2018-09-22T09:10:00.678Z,15.10
2018-09-22T09:12:34.115Z,15.10
2018-09-22T09:15:07.342Z,15.10
2018-09-22T09:17:40.742Z,15.10
2018-09-22T09:20:14.007Z,15.10
2018-09-22T09:22:47.470Z,15.20
2018-09-22T09:25:20.628Z,15.20
2018-09-22T09:27:53.914Z,15.20
2018-09-22T09:30:27.414Z,15.20
2018-09-22T09:33:00.636Z,15.10
2018-09-22T09:35:33.785Z,15.10
2018-09-22T09:38:07.372Z,15.10
2018-09-22T09:40:40.921Z,15.10
2018-09-22T09:43:14.861Z,15.10
2018-09-22T09:45:48.094Z,15.00
2018-09-22T09:48:21.375Z,15.00
2018-09-22T09:50:54.477Z,15.00
2018-09-22T09:53:27.796Z,15.00
2018-09-22T09:56:01.191Z,14.90
2018-09-22T09:58:34.465Z,14.90
2018-09-22T10:01:07.629Z,14.90
2018-09-22T10:03:40.852Z,14.90
2018-09-22T10:06:14.141Z,15.00
2018-09-22T10:08:47.494Z,15.10
2018-09-22T10:11:20.729Z,15.10
2018-09-22T10:13:54.140Z,15.10
2018-09-22T10:16:27.233Z,15.10
2018-09-22T10:19:00.609Z,15.00
2018-09-22T10:21:33.793Z,15.00
2018-09-22T10:24:07.230Z,15.00
2018-09-22T10:26:40.488Z,15.00
2018-09-22T10:29:13.920Z,15.00
2018-09-22T10:31:47.132Z,15.00
2018-09-22T10:34:20.556Z,15.00
2018-09-22T10:36:54.506Z,15.10
2018-09-22T10:39:28.069Z,15.10
2018-09-22T10:42:01.494Z,15.10
2018-09-22T10:44:35.005Z,15.10
2018-09-22T10:47:08.300Z,15.10
2018-09-22T10:49:41.694Z,15.10
2018-09-22T10:52:15.172Z,15.10
2018-09-22T10:54:48.723Z,15.10
2018-09-22T10:57:22.005Z,15.10
2018-09-22T10:59:55.076Z,15.00
2018-09-22T11:02:28.448Z,15.00
2018-09-22T11:05:03.165Z,15.00
2018-09-22T11:07:36.253Z,15.20
2018-09-22T11:10:09.610Z,15.30
2018-09-22T11:12:43.150Z,15.30
2018-09-22T11:15:16.288Z,15.30
2018-09-22T11:17:49.836Z,15.30
2018-09-22T11:20:23.567Z,15.30
2018-09-22T11:22:56.982Z,15.30
2018-09-22T11:25:30.102Z,15.30
2018-09-22T11:28:03.482Z,15.30
2018-09-22T11:30:36.951Z,15.30
2018-09-22T11:33:10.128Z,15.30
2018-09-22T11:35:43.249Z,15.40
2018-09-22T11:38:16.415Z,15.40
2018-09-22T11:40:49.680Z,15.40
2018-09-22T11:43:22.781Z,15.50
2018-09-22T11:45:56.027Z,15.50
2018-09-22T11:48:29.668Z,15.40
2018-09-22T11:51:02.836Z,15.40
2018-09-22T11:53:36.260Z,15.30
2018-09-22T11:56:09.435Z,15.20
2018-09-22T11:58:44.025Z,15.20
2018-09-22T12:01:17.168Z,15.10
2018-09-22T12:03:50.536Z,15.00
2018-09-22T12:06:23.759Z,15.00
2018-09-22T12:08:56.966Z,15.00
2018-09-22T12:11:30.285Z,15.00
2018-09-22T12:14:03.603Z,14.90
2018-09-22T12:16:36.703Z,14.90
2018-09-22T12:19:10.087Z,14.80
2018-09-22T12:21:42.960Z,14.80
2018-09-22T12:24:16.687Z,14.80
2018-09-22T12:26:49.843Z,14.90
2018-09-22T12:29:23.246Z,14.90
2018-09-22T12:31:56.649Z,15.00
2018-09-22T12:34:29.715Z,15.00
2018-09-22T12:37:03.040Z,15.00
2018-09-22T12:39:36.277Z,15.00
2018-09-22T12:42:09.431Z,15.00
2018-09-22T12:44:43.636Z,15.00
2018-09-22T12:47:16.912Z,15.10
2018-09-22T12:49:50.439Z,15.10
2018-09-22T12:52:24.515Z,15.10
2018-09-22T12:54:57.881Z,15.10
2018-09-22T12:57:31.165Z,15.20
2018-09-22T13:00:05.786Z,15.20
2018-09-22T13:02:39.078Z,15.20
2018-09-22T13:05:12.344Z,15.10
2018-09-22T13:07:45.785Z,15.00
2018-09-22T13:10:19.598Z,15.00
2018-09-22T13:12:52.901Z,15.10
2018-09-22T13:15:26.341Z,15.10
2018-09-22T13:17:59.635Z,15.10
2018-09-22T13:20:40.324Z,15.20
2018-09-22T13:23:13.688Z,15.20
2018-09-22T13:25:47.104Z,15.10
2018-09-22T13:28:20.479Z,14.90
2018-09-22T13:30:53.800Z,14.70
2018-09-22T13:33:27.072Z,14.50
2018-09-22T13:36:00.251Z,14.30
2018-09-22T13:38:33.574Z,14.20
2018-09-22T13:41:06.852Z,14.00
2018-09-22T13:43:40.322Z,14.00
2018-09-22T13:46:13.642Z,14.00
2018-09-22T13:48:46.956Z,13.90
2018-09-22T13:51:20.672Z,13.90
2018-09-22T13:53:54.005Z,13.90
2018-09-22T13:56:27.457Z,13.90
2018-09-22T13:59:00.587Z,13.90
2018-09-22T14:01:34.041Z,13.80
2018-09-22T14:04:07.231Z,13.80
2018-09-22T14:06:40.483Z,13.90
2018-09-22T14:09:14.710Z,13.90
2018-09-22T14:11:48.187Z,14.00
2018-09-22T14:14:21.405Z,14.00
2018-09-22T14:16:54.565Z,14.00
2018-09-22T14:19:27.603Z,14.10
2018-09-22T14:22:01.157Z,14.00
2018-09-22T14:24:34.271Z,14.00
2018-09-22T14:27:07.859Z,13.90
2018-09-22T14:29:41.325Z,13.90
2018-09-22T14:32:14.545Z,14.00
2018-09-22T14:34:48.643Z,14.10
2018-09-22T14:37:21.969Z,14.10
2018-09-22T14:39:55.638Z,14.20
2018-09-22T14:42:29.078Z,14.30
2018-09-22T14:45:01.985Z,14.30
2018-09-22T14:47:35.546Z,14.40
2018-09-22T14:50:08.938Z,14.40
2018-09-22T14:52:42.262Z,14.50
2018-09-22T14:55:15.926Z,14.50
2018-09-22T14:57:49.666Z,14.50
2018-09-22T15:00:23.217Z,14.60
2018-09-22T15:02:57.779Z,14.60
2018-09-22T15:05:32.301Z,14.60
2018-09-22T15:08:06.005Z,14.70
2018-09-22T15:10:39.355Z,14.60
2018-09-22T15:13:12.704Z,14.70
2018-09-22T15:15:46.886Z,14.70
2018-09-22T15:18:21.357Z,14.70
2018-09-22T15:20:54.802Z,14.70
2018-09-22T15:23:30.190Z,14.80
2018-09-22T15:26:05.551Z,14.80
2018-09-22T15:28:39.183Z,14.80
2018-09-22T15:31:13.037Z,14.90
2018-09-22T15:33:47.098Z,14.90
2018-09-22T15:36:20.716Z,14.90
2018-09-22T15:38:55.125Z,14.90
2018-09-22T15:41:29.921Z,14.90
2018-09-22T15:44:03.386Z,15.00
2018-09-22T15:46:36.952Z,15.00
2018-09-22T15:49:10.119Z,15.00
2018-09-22T15:51:43.502Z,15.20
2018-09-22T15:54:16.641Z,15.10
2018-09-22T15:56:49.990Z,15.30
2018-09-22T15:59:23.232Z,15.30
2018-09-22T16:01:56.503Z,15.40
2018-09-22T16:04:29.732Z,15.40
2018-09-22T16:07:03.113Z,15.50
2018-09-22T16:09:36.820Z,15.50
2018-09-22T16:12:10.290Z,15.60
2018-09-22T16:14:43.656Z,15.60
2018-09-22T16:17:17.700Z,15.70
2018-09-22T16:19:50.484Z,15.70
2018-09-22T16:22:23.842Z,15.70
2018-09-22T16:24:56.888Z,15.60
2018-09-22T16:27:30.201Z,15.50
2018-09-22T16:30:03.811Z,15.50
2018-09-22T16:32:37.222Z,15.70
2018-09-22T16:35:10.496Z,15.70
2018-09-22T16:37:45.208Z,15.70
2018-09-22T16:40:18.363Z,15.90
2018-09-22T16:42:51.837Z,16.10
2018-09-22T16:45:24.655Z,16.40
2018-09-22T16:47:59.061Z,16.50
2018-09-22T16:50:32.557Z,16.60
2018-09-22T16:53:05.377Z,16.70
2018-09-22T16:55:38.440Z,16.50
2018-09-22T16:58:11.982Z,16.30
2018-09-22T17:00:45.138Z,16.30
2018-09-22T17:03:18.599Z,16.30
2018-09-22T17:05:52.932Z,16.30
2018-09-22T17:08:25.830Z,16.40
2018-09-22T17:10:59.093Z,16.40
2018-09-22T17:13:34.698Z,16.40
2018-09-22T17:16:08.564Z,16.60
2018-09-22T17:18:42.363Z,16.50
2018-09-22T17:21:16.673Z,16.50
2018-09-22T17:23:51.089Z,16.50
2018-09-22T17:26:24.995Z,16.50
2018-09-22T17:28:59.033Z,16.50
2018-09-22T17:31:32.912Z,16.50
2018-09-22T17:34:06.487Z,16.50
2018-09-22T17:36:40.823Z,16.60
2018-09-22T17:39:14.679Z,16.60
2018-09-22T17:41:48.070Z,16.70
2018-09-22T17:44:21.597Z,16.70
2018-09-22T17:46:55.076Z,16.60
2018-09-22T17:49:28.315Z,16.60
2018-09-22T17:52:01.994Z,16.60
2018-09-22T17:54:36.895Z,16.60
2018-09-22T17:57:10.376Z,16.60
2018-09-22T17:59:44.991Z,16.60
2018-09-22T18:02:18.453Z,16.60
2018-09-22T18:04:51.713Z,16.40
2018-09-22T18:07:25.308Z,16.10
2018-09-22T18:09:58.811Z,16.00
2018-09-22T18:12:32.046Z,16.10
2018-09-22T18:15:05.433Z,16.20
2018-09-22T18:17:38.875Z,16.30
2018-09-22T18:20:12.008Z,16.50
2018-09-22T18:22:48.279Z,16.70
2018-09-22T18:25:21.927Z,16.90
2018-09-22T18:27:55.783Z,17.00
2018-09-22T18:30:29.836Z,17.10
2018-09-22T18:33:03.424Z,17.30
2018-09-22T18:35:37.135Z,17.50
2018-09-22T18:38:11.593Z,17.60
2018-09-22T18:40:45.177Z,17.70
2018-09-22T18:43:18.987Z,17.80
2018-09-22T18:45:53.365Z,17.60
2018-09-22T18:48:26.562Z,17.60
2018-09-22T18:50:59.875Z,17.50
2018-09-22T18:53:33.193Z,17.40
2018-09-22T18:56:06.247Z,17.40
2018-09-22T18:58:39.602Z,17.40
2018-09-22T19:01:12.867Z,17.40
2018-09-22T19:03:46.037Z,17.50
2018-09-22T19:06:19.657Z,17.60
2018-09-22T19:08:52.870Z,17.80
2018-09-22T19:11:26.163Z,17.80
2018-09-22T19:14:18.503Z,17.80
2018-09-22T19:16:56.336Z,17.80
2018-09-22T19:19:41.356Z,17.80
2018-09-22T19:22:18.494Z,17.80
2018-09-22T19:25:06.701Z,17.60
2018-09-22T19:27:44.827Z,17.60
2018-09-22T19:30:24.330Z,17.60
2018-09-22T19:33:07.842Z,17.80
2018-09-22T19:35:55.391Z,17.90
2018-09-22T19:38:38.402Z,18.00
2018-09-22T19:41:18.267Z,18.30
2018-09-22T19:43:57.945Z,18.20
2018-09-22T19:46:37.616Z,18.40
2018-09-22T19:49:16.800Z,18.30
2018-09-22T19:52:10.291Z,18.40
2018-09-22T19:54:43.805Z,18.30
2018-09-22T19:57:21.447Z,18.40
2018-09-22T19:59:54.528Z,18.40
2018-09-22T20:02:27.953Z,18.30
2018-09-22T20:05:01.363Z,18.10
2018-09-22T20:07:34.416Z,18.10
2018-09-22T20:10:07.722Z,18.30
2018-09-22T20:12:41.227Z,18.30
2018-09-22T20:15:14.538Z,18.50
2018-09-22T20:17:47.976Z,18.40
2018-09-22T20:20:22.510Z,18.20
2018-09-22T20:22:56.198Z,18.50
2018-09-22T20:25:29.438Z,18.80
2018-09-22T20:28:03.999Z,19.00
2018-09-22T20:30:37.103Z,19.10
2018-09-22T20:33:10.620Z,18.90
2018-09-22T20:35:44.250Z,19.00
2018-09-22T20:38:17.384Z,19.00
2018-09-22T20:40:51.638Z,18.60
2018-09-22T20:43:25.341Z,18.70
2018-09-22T20:45:58.557Z,19.20
2018-09-22T20:48:31.915Z,19.20
2018-09-22T20:51:05.201Z,19.20
2018-09-22T20:53:38.427Z,18.80
2018-09-22T20:56:11.620Z,18.90
2018-09-22T20:58:44.711Z,19.10
2018-09-22T21:01:18.024Z,19.00
2018-09-22T21:03:54.577Z,18.50
2018-09-22T21:06:27.964Z,18.40
2018-09-22T21:09:00.980Z,18.60
2018-09-22T21:11:34.467Z,18.70
2018-09-22T21:14:08.149Z,18.90
2018-09-22T21:16:41.680Z,18.90
2018-09-22T21:19:15.001Z,18.60
2018-09-22T21:21:48.197Z,18.40
2018-09-22T21:24:21.386Z,18.40
2018-09-22T21:26:55.584Z,18.50
2018-09-22T21:29:28.700Z,18.60
2018-09-22T21:32:01.989Z,18.90
2018-09-22T21:34:35.372Z,19.40
2018-09-22T21:37:08.605Z,19.10
2018-09-22T21:39:41.983Z,18.60
2018-09-22T21:42:15.242Z,18.60
2018-09-22T21:44:48.514Z,19.00
2018-09-22T21:47:22.022Z,19.20
2018-09-22T21:49:55.622Z,18.90
2018-09-22T21:52:29.291Z,19.20
2018-09-22T21:55:02.183Z,19.10
2018-09-22T21:57:35.379Z,18.90
2018-09-22T22:00:08.726Z,18.80
2018-09-22T22:02:42.146Z,18.80
2018-09-22T22:05:15.234Z,18.70
2018-09-22T22:07:48.693Z,18.70
2018-09-22T22:10:22.010Z,18.80
2018-09-22T22:12:55.029Z,19.00
2018-09-22T22:15:28.433Z,18.90
2018-09-22T22:18:01.590Z,19.00
2018-09-22T22:20:34.621Z,18.80
2018-09-22T22:23:07.951Z,19.10
2018-09-22T22:25:41.140Z,19.20
2018-09-22T22:28:14.902Z,19.50
2018-09-22T22:30:48.139Z,19.50
2018-09-22T22:33:21.519Z,19.60
2018-09-22T22:35:54.735Z,19.30
2018-09-22T22:38:28.243Z,19.30
2018-09-22T22:41:01.664Z,19.10
2018-09-22T22:43:35.118Z,19.10
2018-09-22T22:46:08.409Z,19.50
2018-09-22T22:48:41.621Z,19.60
2018-09-22T22:51:15.211Z,19.30
2018-09-22T22:53:48.514Z,19.50
2018-09-22T22:56:21.776Z,19.20
2018-09-22T22:58:55.455Z,19.00
2018-09-22T23:01:28.993Z,19.00
2018-09-22T23:04:02.406Z,19.10
2018-09-22T23:06:36.456Z,18.80
2018-09-22T23:09:11.797Z,18.80
2018-09-22T23:11:45.449Z,18.90
2018-09-22T23:14:18.980Z,18.90
2018-09-22T23:16:51.985Z,18.80
2018-09-22T23:19:25.115Z,18.70
2018-09-22T23:21:58.692Z,18.50
2018-09-22T23:24:32.565Z,18.70
2018-09-22T23:27:05.757Z,18.80
2018-09-22T23:29:39.710Z,18.90
2018-09-22T23:32:13.174Z,18.70
2018-09-22T23:34:46.405Z,18.60
2018-09-22T23:37:19.751Z,18.60
2018-09-22T23:39:52.877Z,18.80
2018-09-22T23:42:25.879Z,19.00
2018-09-22T23:44:59.150Z,19.00
2018-09-22T23:47:32.513Z,19.20
2018-09-22T23:50:05.973Z,19.50
2018-09-22T23:52:39.161Z,20.00
2018-09-22T23:55:12.299Z,19.80
2018-09-22T23:57:45.807Z,19.30
